sensor_id;sensor_type;location;lat;lon;timestamp;temperature;humidity
25991;DHT22;13779;-33.886;151.198;2023-04-08T00:01:18;20.20;99.90
25991;DHT22;13779;-33.886;151.198;2023-04-08T00:03:49;20.30;99.90
25991;DHT22;13779;-33.886;151.198;2023-04-08T00:06:20;20.40;99.90
25991;DHT22;13779;-33.886;151.198;2023-04-08T00:08:50;20.50;99.90
25991;DHT22;13779;-33.886;151.198;2023-04-08T00:11:21;20.50;99.90
25991;DHT22;13779;-33.886;151.198;2023-04-08T00:13:51;20.50;99.90
25991;DHT22;13779;-33.886;151.198;2023-04-08T00:16:22;20.50;99.90
25991;DHT22;13779;-33.886;151.198;2023-04-08T00:18:52;20.50;99.90
25991;DHT22;13779;-33.886;151.198;2023-04-08T00:21:23;20.50;99.90
25991;DHT22;13779;-33.886;151.198;2023-04-08T00:23:53;20.50;99.90
25991;DHT22;13779;-33.886;151.198;2023-04-08T00:26:25;20.50;99.90
25991;DHT22;13779;-33.886;151.198;2023-04-08T00:28:56;20.60;99.90
25991;DHT22;13779;-33.886;151.198;2023-04-08T00:31:26;20.60;99.90
25991;DHT22;13779;-33.886;151.198;2023-04-08T00:33:58;20.60;99.90
25991;DHT22;13779;-33.886;151.198;2023-04-08T00:36:29;20.60;99.90
25991;DHT22;13779;-33.886;151.198;2023-04-08T00:38:59;20.60;99.90
25991;DHT22;13779;-33.886;151.198;2023-04-08T00:41:30;20.70;99.90
25991;DHT22;13779;-33.886;151.198;2023-04-08T00:44:02;20.70;99.90
25991;DHT22;13779;-33.886;151.198;2023-04-08T00:46:37;20.80;99.90
25991;DHT22;13779;-33.886;151.198;2023-04-08T00:49:08;20.90;99.90
25991;DHT22;13779;-33.886;151.198;2023-04-08T00:51:39;21.00;99.90
25991;DHT22;13779;-33.886;151.198;2023-04-08T00:54:09;21.00;99.90
25991;DHT22;13779;-33.886;151.198;2023-04-08T00:56:40;21.00;99.90
25991;DHT22;13779;-33.886;151.198;2023-04-08T00:59:12;21.00;99.90
25991;DHT22;13779;-33.886;151.198;2023-04-08T01:01:50;21.00;99.90
25991;DHT22;13779;-33.886;151.198;2023-04-08T01:04:32;21.00;99.90
25991;DHT22;13779;-33.886;151.198;2023-04-08T01:07:37;21.10;99.90
25991;DHT22;13779;-33.886;151.198;2023-04-08T01:13:17;21.30;99.90
25991;DHT22;13779;-33.886;151.198;2023-04-08T01:15:51;21.30;99.90
25991;DHT22;13779;-33.886;151.198;2023-04-08T01:18:22;21.40;99.90
25991;DHT22;13779;-33.886;151.198;2023-04-08T01:20:54;21.40;99.90
25991;DHT22;13779;-33.886;151.198;2023-04-08T01:26:26;21.40;99.90
25991;DHT22;13779;-33.886;151.198;2023-04-08T01:28:59;21.40;99.90
25991;DHT22;13779;-33.886;151.198;2023-04-08T01:31:31;21.40;99.90
25991;DHT22;13779;-33.886;151.198;2023-04-08T01:34:03;21.50;99.90
25991;DHT22;13779;-33.886;151.198;2023-04-08T01:36:36;21.50;99.90
25991;DHT22;13779;-33.886;151.198;2023-04-08T01:39:07;21.50;99.90
25991;DHT22;13779;-33.886;151.198;2023-04-08T01:41:38;21.50;99.90
25991;DHT22;13779;-33.886;151.198;2023-04-08T01:44:09;21.50;99.90
25991;DHT22;13779;-33.886;151.198;2023-04-08T01:46:41;21.60;99.90
25991;DHT22;13779;-33.886;151.198;2023-04-08T01:49:11;21.60;99.90
25991;DHT22;13779;-33.886;151.198;2023-04-08T01:51:44;21.70;99.90
25991;DHT22;13779;-33.886;151.198;2023-04-08T01:54:15;21.70;99.90
25991;DHT22;13779;-33.886;151.198;2023-04-08T01:56:46;21.80;99.90
25991;DHT22;13779;-33.886;151.198;2023-04-08T01:59:16;21.80;99.90
25991;DHT22;13779;-33.886;151.198;2023-04-08T02:01:53;21.80;99.90
25991;DHT22;13779;-33.886;151.198;2023-04-08T02:04:23;21.80;99.90
25991;DHT22;13779;-33.886;151.198;2023-04-08T02:06:55;21.90;99.90
25991;DHT22;13779;-33.886;151.198;2023-04-08T02:09:26;21.90;99.90
25991;DHT22;13779;-33.886;151.198;2023-04-08T02:11:57;21.90;99.90
25991;DHT22;13779;-33.886;151.198;2023-04-08T02:14:28;21.90;99.90
25991;DHT22;13779;-33.886;151.198;2023-04-08T02:19:59;22.00;99.90
25991;DHT22;13779;-33.886;151.198;2023-04-08T02:25:16;22.00;99.90
25991;DHT22;13779;-33.886;151.198;2023-04-08T02:27:47;22.00;99.90
25991;DHT22;13779;-33.886;151.198;2023-04-08T02:30:19;22.00;99.90
25991;DHT22;13779;-33.886;151.198;2023-04-08T02:32:52;22.10;99.90
25991;DHT22;13779;-33.886;151.198;2023-04-08T02:35:23;22.10;99.90
25991;DHT22;13779;-33.886;151.198;2023-04-08T02:37:53;22.10;99.90
25991;DHT22;13779;-33.886;151.198;2023-04-08T02:40:29;22.10;99.90
25991;DHT22;13779;-33.886;151.198;2023-04-08T02:43:00;22.10;99.90
25991;DHT22;13779;-33.886;151.198;2023-04-08T02:45:34;22.10;99.90
25991;DHT22;13779;-33.886;151.198;2023-04-08T02:48:07;22.10;99.90
25991;DHT22;13779;-33.886;151.198;2023-04-08T02:50:38;22.10;99.90
25991;DHT22;13779;-33.886;151.198;2023-04-08T02:53:08;22.20;99.90
25991;DHT22;13779;-33.886;151.198;2023-04-08T02:55:39;22.20;99.90
25991;DHT22;13779;-33.886;151.198;2023-04-08T02:58:09;22.40;99.90
25991;DHT22;13779;-33.886;151.198;2023-04-08T03:00:40;22.40;99.90
25991;DHT22;13779;-33.886;151.198;2023-04-08T03:03:11;22.40;99.90
25991;DHT22;13779;-33.886;151.198;2023-04-08T03:05:42;22.50;99.90
25991;DHT22;13779;-33.886;151.198;2023-04-08T03:08:12;22.50;99.90
25991;DHT22;13779;-33.886;151.198;2023-04-08T03:10:43;22.60;99.90
25991;DHT22;13779;-33.886;151.198;2023-04-08T03:13:14;22.70;99.90
25991;DHT22;13779;-33.886;151.198;2023-04-08T03:15:45;22.60;99.90
25991;DHT22;13779;-33.886;151.198;2023-04-08T03:18:15;22.80;99.90
25991;DHT22;13779;-33.886;151.198;2023-04-08T03:20:46;22.80;99.90
25991;DHT22;13779;-33.886;151.198;2023-04-08T03:23:17;22.80;99.90
25991;DHT22;13779;-33.886;151.198;2023-04-08T03:25:48;22.80;99.90
25991;DHT22;13779;-33.886;151.198;2023-04-08T03:28:18;22.80;99.90
25991;DHT22;13779;-33.886;151.198;2023-04-08T03:30:49;22.90;99.90
25991;DHT22;13779;-33.886;151.198;2023-04-08T03:33:34;22.90;99.90
25991;DHT22;13779;-33.886;151.198;2023-04-08T03:36:07;22.80;99.90
25991;DHT22;13779;-33.886;151.198;2023-04-08T03:38:38;22.90;99.90
25991;DHT22;13779;-33.886;151.198;2023-04-08T03:41:09;22.90;99.90
25991;DHT22;13779;-33.886;151.198;2023-04-08T03:43:40;22.80;99.90
25991;DHT22;13779;-33.886;151.198;2023-04-08T03:46:10;22.70;99.90
25991;DHT22;13779;-33.886;151.198;2023-04-08T03:48:41;22.70;99.90
25991;DHT22;13779;-33.886;151.198;2023-04-08T03:51:11;22.60;99.90
25991;DHT22;13779;-33.886;151.198;2023-04-08T03:53:42;22.60;99.90
25991;DHT22;13779;-33.886;151.198;2023-04-08T03:56:14;22.60;99.90
25991;DHT22;13779;-33.886;151.198;2023-04-08T03:58:44;22.60;99.90
25991;DHT22;13779;-33.886;151.198;2023-04-08T04:01:15;22.60;99.90
25991;DHT22;13779;-33.886;151.198;2023-04-08T04:03:45;22.50;99.90
25991;DHT22;13779;-33.886;151.198;2023-04-08T04:06:16;22.50;99.90
25991;DHT22;13779;-33.886;151.198;2023-04-08T04:08:46;22.70;99.90
25991;DHT22;13779;-33.886;151.198;2023-04-08T04:11:16;22.80;99.90
25991;DHT22;13779;-33.886;151.198;2023-04-08T04:13:46;22.80;99.90
25991;DHT22;13779;-33.886;151.198;2023-04-08T04:16:16;22.90;99.90
25991;DHT22;13779;-33.886;151.198;2023-04-08T04:18:46;23.10;99.90
25991;DHT22;13779;-33.886;151.198;2023-04-08T04:21:17;23.30;99.90
25991;DHT22;13779;-33.886;151.198;2023-04-08T04:23:47;23.20;99.90
25991;DHT22;13779;-33.886;151.198;2023-04-08T04:26:17;23.30;99.90
25991;DHT22;13779;-33.886;151.198;2023-04-08T04:28:47;23.40;99.90
25991;DHT22;13779;-33.886;151.198;2023-04-08T04:31:23;23.50;99.90
25991;DHT22;13779;-33.886;151.198;2023-04-08T04:33:56;23.30;99.90
25991;DHT22;13779;-33.886;151.198;2023-04-08T04:36:26;23.10;99.90
25991;DHT22;13779;-33.886;151.198;2023-04-08T04:38:56;22.80;99.90
25991;DHT22;13779;-33.886;151.198;2023-04-08T04:41:26;22.70;99.90
25991;DHT22;13779;-33.886;151.198;2023-04-08T04:43:56;22.50;99.90
25991;DHT22;13779;-33.886;151.198;2023-04-08T04:46:27;22.40;99.90
25991;DHT22;13779;-33.886;151.198;2023-04-08T04:48:57;22.30;99.90
25991;DHT22;13779;-33.886;151.198;2023-04-08T04:51:29;22.30;99.90
25991;DHT22;13779;-33.886;151.198;2023-04-08T04:54:00;22.40;99.90
25991;DHT22;13779;-33.886;151.198;2023-04-08T04:56:31;22.50;99.90
25991;DHT22;13779;-33.886;151.198;2023-04-08T04:59:01;22.50;99.90
25991;DHT22;13779;-33.886;151.198;2023-04-08T05:01:31;22.50;99.90
25991;DHT22;13779;-33.886;151.198;2023-04-08T05:04:01;22.40;99.90
25991;DHT22;13779;-33.886;151.198;2023-04-08T05:06:32;22.40;99.90
25991;DHT22;13779;-33.886;151.198;2023-04-08T05:09:02;22.30;99.90
25991;DHT22;13779;-33.886;151.198;2023-04-08T05:11:32;22.20;99.90
25991;DHT22;13779;-33.886;151.198;2023-04-08T05:14:02;22.20;99.90
25991;DHT22;13779;-33.886;151.198;2023-04-08T05:16:33;22.10;99.90
25991;DHT22;13779;-33.886;151.198;2023-04-08T05:19:03;22.00;99.90
25991;DHT22;13779;-33.886;151.198;2023-04-08T05:21:33;22.00;99.90
25991;DHT22;13779;-33.886;151.198;2023-04-08T05:24:04;22.00;99.90
25991;DHT22;13779;-33.886;151.198;2023-04-08T05:26:35;21.90;99.90
25991;DHT22;13779;-33.886;151.198;2023-04-08T05:29:06;21.90;99.90
25991;DHT22;13779;-33.886;151.198;2023-04-08T05:31:37;21.90;99.90
25991;DHT22;13779;-33.886;151.198;2023-04-08T05:34:07;21.90;99.90
25991;DHT22;13779;-33.886;151.198;2023-04-08T05:36:38;21.90;99.90
25991;DHT22;13779;-33.886;151.198;2023-04-08T05:39:09;22.00;99.90
25991;DHT22;13779;-33.886;151.198;2023-04-08T05:41:39;22.00;99.90
25991;DHT22;13779;-33.886;151.198;2023-04-08T05:44:09;21.90;99.90
25991;DHT22;13779;-33.886;151.198;2023-04-08T05:46:39;21.90;99.90
25991;DHT22;13779;-33.886;151.198;2023-04-08T05:49:10;21.90;99.90
25991;DHT22;13779;-33.886;151.198;2023-04-08T05:51:40;21.90;99.90
25991;DHT22;13779;-33.886;151.198;2023-04-08T05:54:14;21.90;99.90
25991;DHT22;13779;-33.886;151.198;2023-04-08T05:56:44;21.90;99.90
25991;DHT22;13779;-33.886;151.198;2023-04-08T05:59:17;22.00;99.90
25991;DHT22;13779;-33.886;151.198;2023-04-08T06:01:47;22.00;99.90
25991;DHT22;13779;-33.886;151.198;2023-04-08T06:04:17;22.00;99.90
25991;DHT22;13779;-33.886;151.198;2023-04-08T06:06:48;21.90;99.90
25991;DHT22;13779;-33.886;151.198;2023-04-08T06:09:18;21.90;99.90
25991;DHT22;13779;-33.886;151.198;2023-04-08T06:11:48;21.80;99.90
25991;DHT22;13779;-33.886;151.198;2023-04-08T06:14:19;21.80;99.90
25991;DHT22;13779;-33.886;151.198;2023-04-08T06:16:49;21.80;99.90
25991;DHT22;13779;-33.886;151.198;2023-04-08T06:19:21;21.80;99.90
25991;DHT22;13779;-33.886;151.198;2023-04-08T06:21:52;21.80;99.90
25991;DHT22;13779;-33.886;151.198;2023-04-08T06:24:27;21.80;99.90
25991;DHT22;13779;-33.886;151.198;2023-04-08T06:26:57;21.70;99.90
25991;DHT22;13779;-33.886;151.198;2023-04-08T06:29:28;21.70;99.90
25991;DHT22;13779;-33.886;151.198;2023-04-08T06:31:58;21.70;99.90
25991;DHT22;13779;-33.886;151.198;2023-04-08T06:34:28;21.70;99.90
25991;DHT22;13779;-33.886;151.198;2023-04-08T06:36:59;21.60;99.90
25991;DHT22;13779;-33.886;151.198;2023-04-08T06:39:29;21.60;99.90
25991;DHT22;13779;-33.886;151.198;2023-04-08T06:41:59;21.60;99.90
25991;DHT22;13779;-33.886;151.198;2023-04-08T06:44:29;21.50;99.90
25991;DHT22;13779;-33.886;151.198;2023-04-08T06:47:00;21.60;99.90
25991;DHT22;13779;-33.886;151.198;2023-04-08T06:49:30;21.60;99.90
25991;DHT22;13779;-33.886;151.198;2023-04-08T06:52:00;21.70;99.90
25991;DHT22;13779;-33.886;151.198;2023-04-08T06:54:34;21.60;99.90
25991;DHT22;13779;-33.886;151.198;2023-04-08T06:57:05;21.50;99.90
25991;DHT22;13779;-33.886;151.198;2023-04-08T06:59:35;21.50;99.90
25991;DHT22;13779;-33.886;151.198;2023-04-08T07:02:06;21.50;99.90
25991;DHT22;13779;-33.886;151.198;2023-04-08T07:04:36;21.50;99.90
25991;DHT22;13779;-33.886;151.198;2023-04-08T07:07:07;21.50;99.90
25991;DHT22;13779;-33.886;151.198;2023-04-08T07:09:38;21.50;99.90
25991;DHT22;13779;-33.886;151.198;2023-04-08T07:12:10;21.50;99.90
25991;DHT22;13779;-33.886;151.198;2023-04-08T07:14:40;21.40;99.90
25991;DHT22;13779;-33.886;151.198;2023-04-08T07:17:10;21.40;99.90
25991;DHT22;13779;-33.886;151.198;2023-04-08T07:19:41;21.40;99.90
25991;DHT22;13779;-33.886;151.198;2023-04-08T07:22:11;21.40;99.90
25991;DHT22;13779;-33.886;151.198;2023-04-08T07:24:41;21.40;99.90
25991;DHT22;13779;-33.886;151.198;2023-04-08T07:27:14;21.30;99.90
25991;DHT22;13779;-33.886;151.198;2023-04-08T07:29:45;21.30;99.90
25991;DHT22;13779;-33.886;151.198;2023-04-08T07:32:15;21.20;99.90
25991;DHT22;13779;-33.886;151.198;2023-04-08T07:34:46;21.20;99.90
25991;DHT22;13779;-33.886;151.198;2023-04-08T07:37:16;21.20;99.90
25991;DHT22;13779;-33.886;151.198;2023-04-08T07:39:46;21.20;99.90
25991;DHT22;13779;-33.886;151.198;2023-04-08T07:42:16;21.10;99.90
25991;DHT22;13779;-33.886;151.198;2023-04-08T07:44:47;21.00;99.90
25991;DHT22;13779;-33.886;151.198;2023-04-08T07:47:17;21.00;99.90
25991;DHT22;13779;-33.886;151.198;2023-04-08T07:49:47;20.90;99.90
25991;DHT22;13779;-33.886;151.198;2023-04-08T07:52:18;21.00;99.90
25991;DHT22;13779;-33.886;151.198;2023-04-08T07:54:48;20.90;99.90
25991;DHT22;13779;-33.886;151.198;2023-04-08T07:57:19;20.90;99.90
25991;DHT22;13779;-33.886;151.198;2023-04-08T07:59:50;20.90;99.90
25991;DHT22;13779;-33.886;151.198;2023-04-08T08:02:20;20.80;99.90
25991;DHT22;13779;-33.886;151.198;2023-04-08T08:04:51;20.80;99.90
25991;DHT22;13779;-33.886;151.198;2023-04-08T08:07:21;20.80;99.90
25991;DHT22;13779;-33.886;151.198;2023-04-08T08:09:52;20.70;99.90
25991;DHT22;13779;-33.886;151.198;2023-04-08T08:12:22;20.70;99.90
25991;DHT22;13779;-33.886;151.198;2023-04-08T08:14:53;20.70;99.90
25991;DHT22;13779;-33.886;151.198;2023-04-08T08:17:27;20.70;99.90
25991;DHT22;13779;-33.886;151.198;2023-04-08T08:20:00;20.70;99.90
25991;DHT22;13779;-33.886;151.198;2023-04-08T08:22:30;20.70;99.90
25991;DHT22;13779;-33.886;151.198;2023-04-08T08:25:03;20.70;99.90
25991;DHT22;13779;-33.886;151.198;2023-04-08T08:27:34;20.60;99.90
25991;DHT22;13779;-33.886;151.198;2023-04-08T08:30:06;20.60;99.90
25991;DHT22;13779;-33.886;151.198;2023-04-08T08:32:36;20.60;99.90
25991;DHT22;13779;-33.886;151.198;2023-04-08T08:35:07;20.60;99.90
25991;DHT22;13779;-33.886;151.198;2023-04-08T08:37:38;20.50;99.90
25991;DHT22;13779;-33.886;151.198;2023-04-08T08:40:09;20.50;99.90
25991;DHT22;13779;-33.886;151.198;2023-04-08T08:42:40;20.50;99.90
25991;DHT22;13779;-33.886;151.198;2023-04-08T08:45:11;20.40;99.90
25991;DHT22;13779;-33.886;151.198;2023-04-08T08:47:42;20.40;99.90
25991;DHT22;13779;-33.886;151.198;2023-04-08T08:50:13;20.40;99.90
25991;DHT22;13779;-33.886;151.198;2023-04-08T08:52:51;20.40;99.90
25991;DHT22;13779;-33.886;151.198;2023-04-08T08:55:22;20.40;99.90
25991;DHT22;13779;-33.886;151.198;2023-04-08T08:58:14;20.40;99.90
25991;DHT22;13779;-33.886;151.198;2023-04-08T09:00:44;20.30;99.90
25991;DHT22;13779;-33.886;151.198;2023-04-08T09:03:20;20.30;99.90
25991;DHT22;13779;-33.886;151.198;2023-04-08T09:06:01;20.30;99.90
25991;DHT22;13779;-33.886;151.198;2023-04-08T09:08:34;20.30;99.90
25991;DHT22;13779;-33.886;151.198;2023-04-08T09:11:19;20.30;99.90
25991;DHT22;13779;-33.886;151.198;2023-04-08T09:13:52;20.20;99.90
25991;DHT22;13779;-33.886;151.198;2023-04-08T09:16:22;20.20;99.90
25991;DHT22;13779;-33.886;151.198;2023-04-08T09:18:53;20.20;99.90
25991;DHT22;13779;-33.886;151.198;2023-04-08T09:21:23;20.20;99.90
25991;DHT22;13779;-33.886;151.198;2023-04-08T09:23:58;20.20;99.90
25991;DHT22;13779;-33.886;151.198;2023-04-08T09:26:28;20.20;99.90
25991;DHT22;13779;-33.886;151.198;2023-04-08T09:29:06;20.10;99.90
25991;DHT22;13779;-33.886;151.198;2023-04-08T09:31:56;20.10;99.90
25991;DHT22;13779;-33.886;151.198;2023-04-08T09:34:27;20.10;99.90
25991;DHT22;13779;-33.886;151.198;2023-04-08T09:36:58;20.10;99.90
25991;DHT22;13779;-33.886;151.198;2023-04-08T09:39:28;20.10;99.90
25991;DHT22;13779;-33.886;151.198;2023-04-08T09:42:00;20.00;99.90
25991;DHT22;13779;-33.886;151.198;2023-04-08T09:44:35;20.00;99.90
25991;DHT22;13779;-33.886;151.198;2023-04-08T09:47:17;20.00;99.90
25991;DHT22;13779;-33.886;151.198;2023-04-08T09:49:56;20.00;99.90
25991;DHT22;13779;-33.886;151.198;2023-04-08T09:52:32;20.00;99.90
25991;DHT22;13779;-33.886;151.198;2023-04-08T09:55:08;19.90;99.90
25991;DHT22;13779;-33.886;151.198;2023-04-08T09:57:58;19.90;99.90
25991;DHT22;13779;-33.886;151.198;2023-04-08T10:00:38;19.90;99.90
25991;DHT22;13779;-33.886;151.198;2023-04-08T10:03:35;19.90;99.90
25991;DHT22;13779;-33.886;151.198;2023-04-08T10:06:08;19.90;99.90
25991;DHT22;13779;-33.886;151.198;2023-04-08T10:08:40;19.90;99.90
25991;DHT22;13779;-33.886;151.198;2023-04-08T10:11:11;19.80;99.90
25991;DHT22;13779;-33.886;151.198;2023-04-08T10:13:41;19.80;99.90
25991;DHT22;13779;-33.886;151.198;2023-04-08T10:16:22;19.80;99.90
25991;DHT22;13779;-33.886;151.198;2023-04-08T10:18:58;19.80;99.90
25991;DHT22;13779;-33.886;151.198;2023-04-08T10:21:40;19.80;99.90
25991;DHT22;13779;-33.886;151.198;2023-04-08T10:24:16;19.70;99.90
25991;DHT22;13779;-33.886;151.198;2023-04-08T10:26:46;19.70;99.90
25991;DHT22;13779;-33.886;151.198;2023-04-08T10:31:52;19.60;99.90
25991;DHT22;13779;-33.886;151.198;2023-04-08T10:34:26;19.60;99.90
25991;DHT22;13779;-33.886;151.198;2023-04-08T10:36:59;19.60;99.90
25991;DHT22;13779;-33.886;151.198;2023-04-08T10:39:30;19.70;99.90
25991;DHT22;13779;-33.886;151.198;2023-04-08T10:42:03;19.60;99.90
25991;DHT22;13779;-33.886;151.198;2023-04-08T10:44:37;19.60;99.90
25991;DHT22;13779;-33.886;151.198;2023-04-08T10:47:14;19.50;99.90
25991;DHT22;13779;-33.886;151.198;2023-04-08T10:49:44;19.60;99.90
25991;DHT22;13779;-33.886;151.198;2023-04-08T10:52:15;19.60;99.90
25991;DHT22;13779;-33.886;151.198;2023-04-08T10:54:49;19.60;99.90
25991;DHT22;13779;-33.886;151.198;2023-04-08T10:57:26;19.60;99.90
25991;DHT22;13779;-33.886;151.198;2023-04-08T10:59:56;19.50;99.90
25991;DHT22;13779;-33.886;151.198;2023-04-08T11:02:32;19.50;99.90
25991;DHT22;13779;-33.886;151.198;2023-04-08T11:05:02;19.50;99.90
25991;DHT22;13779;-33.886;151.198;2023-04-08T11:07:33;19.50;99.90
25991;DHT22;13779;-33.886;151.198;2023-04-08T11:10:09;19.50;99.90
25991;DHT22;13779;-33.886;151.198;2023-04-08T11:12:39;19.50;99.90
25991;DHT22;13779;-33.886;151.198;2023-04-08T11:15:09;19.50;99.90
25991;DHT22;13779;-33.886;151.198;2023-04-08T11:17:41;19.50;99.90
25991;DHT22;13779;-33.886;151.198;2023-04-08T11:20:11;19.50;99.90
25991;DHT22;13779;-33.886;151.198;2023-04-08T11:22:42;19.50;99.90
25991;DHT22;13779;-33.886;151.198;2023-04-08T11:25:16;19.40;99.90
25991;DHT22;13779;-33.886;151.198;2023-04-08T11:27:46;19.40;99.90
25991;DHT22;13779;-33.886;151.198;2023-04-08T11:30:17;19.40;99.90
25991;DHT22;13779;-33.886;151.198;2023-04-08T11:32:48;19.40;99.90
25991;DHT22;13779;-33.886;151.198;2023-04-08T11:35:18;19.40;99.90
25991;DHT22;13779;-33.886;151.198;2023-04-08T11:37:51;19.40;99.90
25991;DHT22;13779;-33.886;151.198;2023-04-08T11:40:21;19.40;99.90
25991;DHT22;13779;-33.886;151.198;2023-04-08T11:42:52;19.40;99.90
25991;DHT22;13779;-33.886;151.198;2023-04-08T11:45:23;19.40;99.90
25991;DHT22;13779;-33.886;151.198;2023-04-08T11:47:53;19.40;99.90
25991;DHT22;13779;-33.886;151.198;2023-04-08T11:50:24;19.40;99.90
25991;DHT22;13779;-33.886;151.198;2023-04-08T11:52:55;19.30;99.90
25991;DHT22;13779;-33.886;151.198;2023-04-08T11:55:27;19.30;99.90
25991;DHT22;13779;-33.886;151.198;2023-04-08T11:58:02;19.30;99.90
25991;DHT22;13779;-33.886;151.198;2023-04-08T12:00:34;19.30;99.90
25991;DHT22;13779;-33.886;151.198;2023-04-08T12:03:06;19.30;99.90
25991;DHT22;13779;-33.886;151.198;2023-04-08T12:05:37;19.30;99.90
25991;DHT22;13779;-33.886;151.198;2023-04-08T12:08:08;19.20;99.90
25991;DHT22;13779;-33.886;151.198;2023-04-08T12:10:38;19.20;99.90
25991;DHT22;13779;-33.886;151.198;2023-04-08T12:13:09;19.20;99.90
25991;DHT22;13779;-33.886;151.198;2023-04-08T12:15:40;19.20;99.90
25991;DHT22;13779;-33.886;151.198;2023-04-08T12:18:10;19.20;99.90
25991;DHT22;13779;-33.886;151.198;2023-04-08T12:20:41;19.20;99.90
25991;DHT22;13779;-33.886;151.198;2023-04-08T12:23:12;19.10;99.90
25991;DHT22;13779;-33.886;151.198;2023-04-08T12:25:42;19.10;99.90
25991;DHT22;13779;-33.886;151.198;2023-04-08T12:28:13;19.10;99.90
25991;DHT22;13779;-33.886;151.198;2023-04-08T12:30:44;19.10;99.90
25991;DHT22;13779;-33.886;151.198;2023-04-08T12:33:15;19.00;99.90
25991;DHT22;13779;-33.886;151.198;2023-04-08T12:35:46;19.00;99.90
25991;DHT22;13779;-33.886;151.198;2023-04-08T12:38:16;19.00;99.90
25991;DHT22;13779;-33.886;151.198;2023-04-08T12:40:47;19.10;99.90
25991;DHT22;13779;-33.886;151.198;2023-04-08T12:43:17;19.00;99.90
25991;DHT22;13779;-33.886;151.198;2023-04-08T12:45:48;19.00;99.90
25991;DHT22;13779;-33.886;151.198;2023-04-08T12:48:19;19.00;99.90
25991;DHT22;13779;-33.886;151.198;2023-04-08T12:50:49;19.00;99.90
25991;DHT22;13779;-33.886;151.198;2023-04-08T12:53:20;18.90;99.90
25991;DHT22;13779;-33.886;151.198;2023-04-08T12:55:50;18.90;99.90
25991;DHT22;13779;-33.886;151.198;2023-04-08T12:58:25;19.00;99.90
25991;DHT22;13779;-33.886;151.198;2023-04-08T13:00:56;19.00;99.90
25991;DHT22;13779;-33.886;151.198;2023-04-08T13:03:27;18.90;99.90
25991;DHT22;13779;-33.886;151.198;2023-04-08T13:06:00;18.90;99.90
25991;DHT22;13779;-33.886;151.198;2023-04-08T13:08:31;18.90;99.90
25991;DHT22;13779;-33.886;151.198;2023-04-08T13:11:01;19.00;99.90
25991;DHT22;13779;-33.886;151.198;2023-04-08T13:13:32;18.90;99.90
25991;DHT22;13779;-33.886;151.198;2023-04-08T13:16:02;18.90;99.90
25991;DHT22;13779;-33.886;151.198;2023-04-08T13:18:33;18.90;99.90
25991;DHT22;13779;-33.886;151.198;2023-04-08T13:21:05;18.90;99.90
25991;DHT22;13779;-33.886;151.198;2023-04-08T13:23:36;18.80;99.90
25991;DHT22;13779;-33.886;151.198;2023-04-08T13:26:06;18.80;99.90
25991;DHT22;13779;-33.886;151.198;2023-04-08T13:28:37;18.80;99.90
25991;DHT22;13779;-33.886;151.198;2023-04-08T13:31:21;18.70;99.90
25991;DHT22;13779;-33.886;151.198;2023-04-08T13:33:51;18.70;99.90
25991;DHT22;13779;-33.886;151.198;2023-04-08T13:36:25;18.70;99.90
25991;DHT22;13779;-33.886;151.198;2023-04-08T13:38:57;18.70;99.90
25991;DHT22;13779;-33.886;151.198;2023-04-08T13:41:27;18.70;99.90
25991;DHT22;13779;-33.886;151.198;2023-04-08T13:43:58;18.60;99.90
25991;DHT22;13779;-33.886;151.198;2023-04-08T13:46:29;18.70;99.90
25991;DHT22;13779;-33.886;151.198;2023-04-08T13:49:00;18.60;99.90
25991;DHT22;13779;-33.886;151.198;2023-04-08T13:51:31;18.60;99.90
25991;DHT22;13779;-33.886;151.198;2023-04-08T13:54:02;18.60;99.90
25991;DHT22;13779;-33.886;151.198;2023-04-08T13:56:33;18.50;99.90
25991;DHT22;13779;-33.886;151.198;2023-04-08T13:59:03;18.50;99.90
25991;DHT22;13779;-33.886;151.198;2023-04-08T14:01:33;18.40;99.90
25991;DHT22;13779;-33.886;151.198;2023-04-08T14:04:04;18.30;99.90
25991;DHT22;13779;-33.886;151.198;2023-04-08T14:06:34;18.30;99.90
25991;DHT22;13779;-33.886;151.198;2023-04-08T14:09:04;18.30;99.90
25991;DHT22;13779;-33.886;151.198;2023-04-08T14:11:35;18.20;99.90
25991;DHT22;13779;-33.886;151.198;2023-04-08T14:14:05;18.10;99.90
25991;DHT22;13779;-33.886;151.198;2023-04-08T14:16:35;18.20;99.90
25991;DHT22;13779;-33.886;151.198;2023-04-08T14:19:05;18.20;99.90
25991;DHT22;13779;-33.886;151.198;2023-04-08T14:21:35;18.20;99.90
25991;DHT22;13779;-33.886;151.198;2023-04-08T14:24:06;18.10;99.90
25991;DHT22;13779;-33.886;151.198;2023-04-08T14:26:36;18.10;99.90
25991;DHT22;13779;-33.886;151.198;2023-04-08T14:29:07;18.10;99.90
25991;DHT22;13779;-33.886;151.198;2023-04-08T14:31:37;18.10;99.90
25991;DHT22;13779;-33.886;151.198;2023-04-08T14:34:07;18.00;99.90
25991;DHT22;13779;-33.886;151.198;2023-04-08T14:36:37;18.00;99.90
25991;DHT22;13779;-33.886;151.198;2023-04-08T14:39:07;18.00;99.90
25991;DHT22;13779;-33.886;151.198;2023-04-08T14:41:37;18.00;99.90
25991;DHT22;13779;-33.886;151.198;2023-04-08T14:44:07;18.00;99.90
25991;DHT22;13779;-33.886;151.198;2023-04-08T14:46:37;18.00;99.90
25991;DHT22;13779;-33.886;151.198;2023-04-08T14:49:08;18.10;99.90
25991;DHT22;13779;-33.886;151.198;2023-04-08T14:51:38;18.10;99.90
25991;DHT22;13779;-33.886;151.198;2023-04-08T14:54:08;18.10;99.90
25991;DHT22;13779;-33.886;151.198;2023-04-08T14:56:38;18.10;99.90
25991;DHT22;13779;-33.886;151.198;2023-04-08T14:59:08;18.10;99.90
25991;DHT22;13779;-33.886;151.198;2023-04-08T15:01:39;18.10;99.90
25991;DHT22;13779;-33.886;151.198;2023-04-08T15:04:09;18.10;99.90
25991;DHT22;13779;-33.886;151.198;2023-04-08T15:06:40;18.10;99.90
25991;DHT22;13779;-33.886;151.198;2023-04-08T15:09:10;18.00;99.90
25991;DHT22;13779;-33.886;151.198;2023-04-08T15:11:40;18.00;99.90
25991;DHT22;13779;-33.886;151.198;2023-04-08T15:14:10;18.00;99.90
25991;DHT22;13779;-33.886;151.198;2023-04-08T15:16:40;18.00;99.90
25991;DHT22;13779;-33.886;151.198;2023-04-08T15:19:10;18.00;99.90
25991;DHT22;13779;-33.886;151.198;2023-04-08T15:21:40;18.00;99.90
25991;DHT22;13779;-33.886;151.198;2023-04-08T15:24:11;18.00;99.90
25991;DHT22;13779;-33.886;151.198;2023-04-08T15:26:41;18.00;99.90
25991;DHT22;13779;-33.886;151.198;2023-04-08T15:29:11;17.90;99.90